首页
METAR-TAF:

METAR-TAF

机场 :

科克機場

科克, 爱尔兰

纬度: 51-51N, 经度: 008-29W, 海拔: 153米

当前天气观测

该预报发布于35分钟前的06:30 UTC
风速13节,风向西北
温度 7°C
湿度 93%
气压 1014 hPa
能见度10公里或以上
散云层高于900英尺
散云层高于4000英尺

METAR: EICK 200630Z 32013KT 9999 SCT009 SCT040 07/06 Q1014 NOSIG

时间: 08:05 (07:05 UTC)

预报

该预报发布于2小时和5分钟前的05:00 UTC
预报有效从20日的 06点(UTC)到 21日的 06点(UTC)
风速10节,风向北转西北
能见度10公里或以上
少量云层高于700英尺
多云层高于4000英尺
成为
从 20日的 09点(UTC)到 20日的 11点(UTC)
风速14节,风向
几率 30% :
短暂存在
从 20日的 13点(UTC)到 20日的 17点(UTC)
风速15节,风向,有时为25节阵风
成为
从 20日的 21点(UTC)到 20日的 23点(UTC)
风速8节,风向北转西北

TAF: EICK 200500Z 2006/2106 34010KT 9999 FEW007 BKN040 BECMG 2009/2011 01014KT PROB30 TEMPO 2013/2017 36015G25KT BECMG 2021/2023 34008KT

超过4000个机场的气象观测和天气预报(METAR&TAF报告)。

可查询的气象台以黄色和红色小点在地图上表示。

将鼠标移到小点上方,可查看气象台名称。

然后点击查看天气观测和预报。

如需切换地图:点击带黑十字的绿色按钮放大地图;点击带横线的绿色按钮缩小地图;或者点击绿色箭头查看邻近地区的地图。


METAR-TAF: